Legend — WDF9316 — position and weather

sailwx.info

Track history (hours):
 
Tides and Currents Weather Stations Pressure Air Temp Water Temp Dewpoint Dewpoint Depression Visibility Wind Speed Wind Dir Waves Ship Positions

Legend

Owner: Crowley Maritime, Seattle, WA. More information available from US FCC via Universal Licensing System and Coast Guard Vessel Documentation Center.

Last reported at 2017-Jan-12 22:27 UTC. Time now 2017-Jan-17 00:51 UTC.
Position N 27°37' W 082°47'.

Length 212 m; draft 7.8 m.

Type: Towing. MMSI: 366709000.

Date/timePositionNaut miles runAvg speedWind from/ knotsBaromVisibWave heightAir tempDewpointWater temp
2017-Jan-12 22:27N 27°37' W 082°47'1112.0
2017-Jan-12 21:33N 27°41' W 082°35'1111.3
2017-Jan-12 20:33N 27°49' W 082°27'7 7.4
2017-Jan-12 19:34N 27°56' W 082°27'1 0.6
2017-Jan-12 18:33N 27°57' W 082°27'0 0.0
2017-Jan-12 17:33N 27°57' W 082°27'0 0.0
2017-Jan-12 16:33N 27°57' W 082°27'0 0.0
2017-Jan-12 15:33N 27°57' W 082°27'0 0.0
2017-Jan-12 14:33N 27°57' W 082°27'0 0.0
2017-Jan-12 13:33N 27°57' W 082°27'0 0.0
2017-Jan-12 12:33N 27°57' W 082°27'0 0.0
2017-Jan-12 11:33N 27°57' W 082°27'0 0.0
2017-Jan-12 10:33N 27°57' W 082°27'0 0.0
2017-Jan-12 09:33N 27°57' W 082°27'0 0.0
2017-Jan-12 08:33N 27°57' W 082°27'0 0.0
2017-Jan-12 07:33N 27°57' W 082°27'0 0.0
2017-Jan-12 06:33N 27°57' W 082°27'0 0.0
2017-Jan-12 05:33N 27°57' W 082°27'0 0.0
2017-Jan-12 04:33N 27°57' W 082°27'0 0.0
2017-Jan-12 03:33N 27°57' W 082°27'0 0.0
2017-Jan-12 02:33N 27°57' W 082°27'0 0.0
2017-Jan-12 01:33N 27°57' W 082°27'0 0.0
2017-Jan-12 00:33N 27°57' W 082°27'0 0.0
2017-Jan-11 23:33N 27°57' W 082°27'0 0.0
2017-Jan-11 22:33N 27°57' W 082°27'0 0.0
2017-Jan-11 21:33N 27°57' W 082°27'0 0.0
2017-Jan-11 20:33N 27°57' W 082°27'0 0.0
2017-Jan-11 19:33N 27°57' W 082°27'0 0.3
2017-Jan-11 18:33N 27°57' W 082°27'0 0.0
2017-Jan-11 17:33N 27°57' W 082°27'0 0.0
2017-Jan-11 16:33N 27°57' W 082°27'0 0.0
2017-Jan-11 15:33N 27°57' W 082°27'0 0.0
2017-Jan-11 14:33N 27°57' W 082°27'0 0.0
2017-Jan-11 13:33N 27°57' W 082°27'0 0.0
2017-Jan-11 12:33N 27°57' W 082°27'0 0.0
2017-Jan-11 11:33N 27°57' W 082°27'0 0.0
2017-Jan-11 10:33N 27°57' W 082°27'0 0.0
2017-Jan-11 09:33N 27°57' W 082°27'0 0.0
2017-Jan-11 08:33N 27°57' W 082°27'0 0.0
2017-Jan-11 07:33N 27°57' W 082°27'0 0.0
2017-Jan-11 06:33N 27°57' W 082°27'0 0.0
2017-Jan-11 05:33N 27°57' W 082°27'0 0.0
2017-Jan-11 04:33N 27°57' W 082°27'0 0.0
2017-Jan-11 03:33N 27°57' W 082°27'0 0.0
2017-Jan-11 02:33N 27°57' W 082°27'0 0.0
2017-Jan-11 01:33N 27°57' W 082°27'0 0.0
2017-Jan-11 00:33N 27°57' W 082°27'0 0.0
2017-Jan-10 23:33N 27°57' W 082°27'0 0.0
2017-Jan-10 22:33N 27°57' W 082°27'0 0.0
2017-Jan-10 21:33N 27°57' W 082°27'3 3.5
2017-Jan-10 20:33N 27°53' W 082°26'9 9.3
2017-Jan-10 19:33N 27°45' W 082°31'  
2017-Jan-05 02:15N 29°57' W 090°14'5 6.8
2017-Jan-05 01:33N 29°56' W 090°08'  
Track history (hours):
 
Tides and Currents Weather Stations Pressure Air Temp Water Temp Dewpoint Dewpoint Depression Visibility Wind Speed Wind Dir Waves Ship Positions

Legend

Owner: Crowley Maritime, Seattle, WA. More information available from US FCC via Universal Licensing System and Coast Guard Vessel Documentation Center.

Last reported at 2017-Jan-12 22:27 UTC. Time now 2017-Jan-17 00:51 UTC.
Position N 27°37' W 082°47'.

Length 212 m; draft 7.8 m.

Type: Towing. MMSI: 366709000.

Date/timePositionNaut miles runAvg speedWind from/ knotsBaromVisibWave heightAir tempDewpointWater temp
2017-Jan-12 22:27N 27°37' W 082°47'1112.0
2017-Jan-12 21:33N 27°41' W 082°35'1111.3
2017-Jan-12 20:33N 27°49' W 082°27'7 7.4
2017-Jan-12 19:34N 27°56' W 082°27'1 0.6
2017-Jan-12 18:33N 27°57' W 082°27'0 0.0
2017-Jan-12 17:33N 27°57' W 082°27'0 0.0
2017-Jan-12 16:33N 27°57' W 082°27'0 0.0
2017-Jan-12 15:33N 27°57' W 082°27'0 0.0
2017-Jan-12 14:33N 27°57' W 082°27'0 0.0
2017-Jan-12 13:33N 27°57' W 082°27'0 0.0
2017-Jan-12 12:33N 27°57' W 082°27'0 0.0
2017-Jan-12 11:33N 27°57' W 082°27'0 0.0
2017-Jan-12 10:33N 27°57' W 082°27'0 0.0
2017-Jan-12 09:33N 27°57' W 082°27'0 0.0
2017-Jan-12 08:33N 27°57' W 082°27'0 0.0
2017-Jan-12 07:33N 27°57' W 082°27'0 0.0
2017-Jan-12 06:33N 27°57' W 082°27'0 0.0
2017-Jan-12 05:33N 27°57' W 082°27'0 0.0
2017-Jan-12 04:33N 27°57' W 082°27'0 0.0
2017-Jan-12 03:33N 27°57' W 082°27'0 0.0
2017-Jan-12 02:33N 27°57' W 082°27'0 0.0
2017-Jan-12 01:33N 27°57' W 082°27'0 0.0
2017-Jan-12 00:33N 27°57' W 082°27'0 0.0
2017-Jan-11 23:33N 27°57' W 082°27'0 0.0
2017-Jan-11 22:33N 27°57' W 082°27'0 0.0
2017-Jan-11 21:33N 27°57' W 082°27'0 0.0
2017-Jan-11 20:33N 27°57' W 082°27'0 0.0
2017-Jan-11 19:33N 27°57' W 082°27'0 0.3
2017-Jan-11 18:33N 27°57' W 082°27'0 0.0
2017-Jan-11 17:33N 27°57' W 082°27'0 0.0
2017-Jan-11 16:33N 27°57' W 082°27'0 0.0
2017-Jan-11 15:33N 27°57' W 082°27'0 0.0
2017-Jan-11 14:33N 27°57' W 082°27'0 0.0
2017-Jan-11 13:33N 27°57' W 082°27'0 0.0
2017-Jan-11 12:33N 27°57' W 082°27'0 0.0
2017-Jan-11 11:33N 27°57' W 082°27'0 0.0
2017-Jan-11 10:33N 27°57' W 082°27'0 0.0
2017-Jan-11 09:33N 27°57' W 082°27'0 0.0
2017-Jan-11 08:33N 27°57' W 082°27'0 0.0
2017-Jan-11 07:33N 27°57' W 082°27'0 0.0
2017-Jan-11 06:33N 27°57' W 082°27'0 0.0
2017-Jan-11 05:33N 27°57' W 082°27'0 0.0
2017-Jan-11 04:33N 27°57' W 082°27'0 0.0
2017-Jan-11 03:33N 27°57' W 082°27'0 0.0
2017-Jan-11 02:33N 27°57' W 082°27'0 0.0
2017-Jan-11 01:33N 27°57' W 082°27'0 0.0
2017-Jan-11 00:33N 27°57' W 082°27'0 0.0
2017-Jan-10 23:33N 27°57' W 082°27'0 0.0
2017-Jan-10 22:33N 27°57' W 082°27'0 0.0
2017-Jan-10 21:33N 27°57' W 082°27'3 3.5
2017-Jan-10 20:33N 27°53' W 082°26'9 9.3
2017-Jan-10 19:33N 27°45' W 082°31'  
2017-Jan-05 02:15N 29°57' W 090°14'5 6.8
2017-Jan-05 01:33N 29°56' W 090°08'  

Dump ship's entire track history